createdAt,value
2024-05-09T00:01:57.550Z,8.56
2024-05-09T00:04:28.253Z,8.59
2024-05-09T00:06:58.864Z,8.65
2024-05-09T00:09:29.386Z,8.66
2024-05-09T00:12:00.297Z,8.62
2024-05-09T00:14:31.100Z,8.60
2024-05-09T00:17:04.403Z,8.49
2024-05-09T00:19:35.040Z,8.41
2024-05-09T00:22:05.700Z,8.37
2024-05-09T00:24:36.180Z,8.29
2024-05-09T00:27:08.335Z,8.40
2024-05-09T00:29:39.082Z,8.48
2024-05-09T00:32:12.751Z,8.50
2024-05-09T00:34:45.489Z,8.33
2024-05-09T00:37:16.453Z,8.39
2024-05-09T00:39:47.191Z,8.31
2024-05-09T00:42:17.881Z,8.26
2024-05-09T00:44:48.432Z,8.18
2024-05-09T00:47:21.645Z,7.85
2024-05-09T00:49:52.372Z,8.07
2024-05-09T00:52:23.714Z,8.05
2024-05-09T00:54:54.389Z,8.07
2024-05-09T00:57:25.422Z,8.06
2024-05-09T00:59:57.056Z,8.04
2024-05-09T01:02:31.041Z,8.17
2024-05-09T01:05:01.751Z,8.08
2024-05-09T01:07:32.682Z,7.95
2024-05-09T01:10:05.499Z,7.80
2024-05-09T01:12:37.832Z,7.65
2024-05-09T01:15:08.931Z,7.51
2024-05-09T01:17:42.538Z,6.97
2024-05-09T01:20:20.007Z,7.26
2024-05-09T01:22:58.842Z,7.14
2024-05-09T01:25:32.965Z,7.06
2024-05-09T01:28:03.714Z,6.98
2024-05-09T01:30:36.751Z,6.92
2024-05-09T01:33:10.749Z,6.90
2024-05-09T01:35:43.425Z,6.92
2024-05-09T01:38:17.244Z,6.92
2024-05-09T01:40:51.385Z,6.87
2024-05-09T01:43:22.089Z,6.78
2024-05-09T01:45:52.678Z,6.69
2024-05-09T01:48:23.367Z,6.63
2024-05-09T01:50:54.016Z,6.57
2024-05-09T01:53:24.606Z,6.52
2024-05-09T01:55:57.647Z,6.20
2024-05-09T01:58:28.361Z,6.47
2024-05-09T02:00:58.969Z,6.44
2024-05-09T02:03:29.787Z,6.42
2024-05-09T02:06:00.755Z,6.38
2024-05-09T02:08:31.393Z,6.35
2024-05-09T02:11:04.455Z,6.01
2024-05-09T02:13:34.949Z,6.28
2024-05-09T02:16:05.573Z,6.26
2024-05-09T02:18:36.295Z,6.40
2024-05-09T02:21:07.142Z,6.49
2024-05-09T02:23:37.852Z,6.51
2024-05-09T02:26:10.923Z,6.28
2024-05-09T02:28:41.410Z,6.41
2024-05-09T02:31:15.048Z,6.30
2024-05-09T02:33:45.790Z,6.35
2024-05-09T02:36:16.534Z,6.28
2024-05-09T02:38:44.435Z,6.26
2024-05-09T02:41:17.241Z,6.24
2024-05-09T02:43:45.262Z,6.17
2024-05-09T02:46:15.803Z,6.16
2024-05-09T02:48:43.974Z,6.09
2024-05-09T02:51:14.588Z,5.98
2024-05-09T02:53:42.527Z,5.88
2024-05-09T02:56:13.212Z,5.80
2024-05-09T02:58:43.516Z,5.06
2024-05-09T03:01:14.081Z,5.68
2024-05-09T03:03:45.332Z,5.42
2024-05-09T03:06:15.893Z,5.61
2024-05-09T03:08:45.689Z,5.35
2024-05-09T03:11:24.515Z,5.53
2024-05-09T03:13:55.560Z,5.24
2024-05-09T03:16:26.110Z,5.45
2024-05-09T03:18:54.782Z,5.43
2024-05-09T03:21:25.575Z,5.41
2024-05-09T03:23:53.546Z,5.39
2024-05-09T03:26:24.192Z,5.40
2024-05-09T03:28:54.502Z,4.63
2024-05-09T03:31:25.145Z,5.40
2024-05-09T03:33:55.685Z,5.39
2024-05-09T03:36:23.696Z,5.41
2024-05-09T03:38:54.179Z,5.42
2024-05-09T03:41:24.743Z,5.44
2024-05-09T03:43:57.665Z,5.25
2024-05-09T03:46:28.219Z,5.52
2024-05-09T03:48:56.307Z,5.54
2024-05-09T03:51:26.883Z,5.57
2024-05-09T03:53:55.185Z,5.59
2024-05-09T03:56:25.812Z,5.64
2024-05-09T03:58:57.499Z,5.71
2024-05-09T04:01:30.117Z,5.77
2024-05-09T04:03:58.218Z,5.86
2024-05-09T04:06:29.564Z,5.17
2024-05-09T04:08:57.442Z,6.05
2024-05-09T04:11:27.960Z,6.19
2024-05-09T04:13:58.218Z,6.28
2024-05-09T04:16:28.787Z,6.35
2024-05-09T04:18:56.799Z,6.43
2024-05-09T04:21:27.325Z,6.53
2024-05-09T04:23:57.860Z,6.62
2024-05-09T04:26:25.718Z,6.71
2024-05-09T04:28:56.325Z,6.80
2024-05-09T04:31:26.554Z,6.23
2024-05-09T04:33:57.239Z,6.97
2024-05-09T04:36:25.202Z,7.07
2024-05-09T04:38:55.762Z,7.15
2024-05-09T04:41:23.717Z,7.31
2024-05-09T04:43:54.318Z,7.44
2024-05-09T04:46:22.233Z,7.57
2024-05-09T04:48:55.598Z,7.46
2024-05-09T04:51:23.565Z,7.83
2024-05-09T04:53:54.063Z,7.96
2024-05-09T04:56:22.023Z,8.09
2024-05-09T04:58:52.569Z,8.19
2024-05-09T05:01:20.597Z,8.31
2024-05-09T05:03:51.358Z,8.46
2024-05-09T05:06:24.994Z,8.61
2024-05-09T05:08:52.912Z,8.76
2024-05-09T05:11:23.570Z,8.96
2024-05-09T05:13:51.835Z,9.17
2024-05-09T05:16:22.365Z,9.38
2024-05-09T05:18:50.401Z,9.60
2024-05-09T05:21:21.271Z,9.77
2024-05-09T05:23:51.510Z,9.64
2024-05-09T05:26:22.267Z,10.16
2024-05-09T05:28:51.004Z,10.30
2024-05-09T05:31:21.609Z,10.43
2024-05-09T05:33:49.689Z,10.54
2024-05-09T05:36:20.450Z,10.61
2024-05-09T05:38:51.116Z,10.62
2024-05-09T05:41:21.775Z,10.69
2024-05-09T05:43:49.735Z,10.79
2024-05-09T05:46:20.394Z,10.83
2024-05-09T05:48:48.358Z,10.87
2024-05-09T05:51:19.143Z,10.92
2024-05-09T05:53:47.153Z,11.00
2024-05-09T05:56:20.183Z,11.08
2024-05-09T05:58:49.082Z,11.09
2024-05-09T06:01:19.723Z,11.11
2024-05-09T06:03:47.691Z,11.19
2024-05-09T06:06:18.366Z,11.24
2024-05-09T06:08:46.340Z,11.31
2024-05-09T06:11:19.693Z,11.38
2024-05-09T06:13:47.697Z,11.43
2024-05-09T06:16:18.334Z,11.49
2024-05-09T06:18:46.908Z,11.54
2024-05-09T06:21:19.862Z,10.83
2024-05-09T06:23:48.237Z,11.45
2024-05-09T06:26:21.574Z,11.75
2024-05-09T06:28:49.370Z,11.76
2024-05-09T06:31:19.909Z,11.88
2024-05-09T06:33:47.892Z,11.94
2024-05-09T06:36:18.421Z,12.02
2024-05-09T06:38:46.473Z,12.12
2024-05-09T06:41:37.304Z,12.24
2024-05-09T06:44:08.113Z,12.36
2024-05-09T06:46:40.257Z,11.82
2024-05-09T06:49:08.935Z,12.50
2024-05-09T06:51:40.070Z,12.50
2024-05-09T06:54:08.923Z,12.63
2024-05-09T06:56:39.961Z,12.98
2024-05-09T06:59:10.634Z,12.74
2024-05-09T07:01:41.263Z,13.12
2024-05-09T07:04:09.803Z,13.21
2024-05-09T07:06:40.781Z,13.27
2024-05-09T07:09:09.190Z,13.32
2024-05-09T07:11:40.547Z,13.37
2024-05-09T07:14:11.320Z,13.04
2024-05-09T07:16:41.965Z,13.50
2024-05-09T07:19:10.215Z,13.55
2024-05-09T07:21:40.925Z,13.60
2024-05-09T07:24:08.915Z,13.68
2024-05-09T07:26:39.197Z,12.81
2024-05-09T07:29:13.667Z,13.81
2024-05-09T07:31:44.382Z,13.89
2024-05-09T07:34:16.584Z,13.99
2024-05-09T07:36:47.382Z,14.09
2024-05-09T07:39:15.366Z,14.22
2024-05-09T07:41:45.763Z,13.55
2024-05-09T07:44:16.046Z,14.40
2024-05-09T07:47:48.616Z,14.48
2024-05-09T07:54:40.007Z,14.72
2024-05-09T07:57:10.666Z,14.77
2024-05-09T07:59:41.465Z,14.81
2024-05-09T08:02:12.282Z,14.88
2024-05-09T08:04:40.292Z,14.96
2024-05-09T08:07:11.063Z,15.09
2024-05-09T08:09:39.860Z,15.16
2024-05-09T08:12:12.900Z,14.83
2024-05-09T08:14:43.239Z,15.38
2024-05-09T08:17:14.273Z,15.50
2024-05-09T08:19:42.192Z,15.55
2024-05-09T08:22:15.942Z,15.61
2024-05-09T08:24:45.717Z,15.73
2024-05-09T08:27:16.155Z,15.75
2024-05-09T08:29:46.689Z,15.62
2024-05-09T08:32:17.218Z,15.71
2024-05-09T08:34:45.139Z,15.89
2024-05-09T08:37:21.501Z,15.39
2024-05-09T08:39:51.529Z,15.97
2024-05-09T08:42:26.299Z,15.50
2024-05-09T08:44:57.587Z,15.91
2024-05-09T08:47:31.487Z,15.41
2024-05-09T08:52:34.495Z,16.16
2024-05-09T08:55:03.233Z,16.27
2024-05-09T08:57:43.572Z,15.97
2024-05-09T09:00:21.727Z,16.33
2024-05-09T09:03:02.632Z,16.15
2024-05-09T09:05:33.494Z,16.04
2024-05-09T09:08:07.747Z,16.51
2024-05-09T09:10:35.997Z,16.52
2024-05-09T09:13:09.746Z,16.54
2024-05-09T09:15:50.444Z,16.54
2024-05-09T09:18:21.342Z,16.69
2024-05-09T09:20:50.255Z,16.58
2024-05-09T09:23:20.918Z,17.05
2024-05-09T09:25:48.575Z,17.23
2024-05-09T09:28:19.101Z,17.70
2024-05-09T09:30:49.382Z,17.42
2024-05-09T09:33:21.620Z,17.36
2024-05-09T09:35:49.313Z,17.18
2024-05-09T09:38:25.882Z,17.56
2024-05-09T09:40:53.815Z,17.50
2024-05-09T09:43:25.144Z,17.51
2024-05-09T09:45:59.962Z,17.65
2024-05-09T09:48:33.450Z,17.65
2024-05-09T09:51:01.821Z,17.80
2024-05-09T09:53:34.500Z,17.79
2024-05-09T09:56:04.835Z,18.12
2024-05-09T09:58:37.826Z,18.77
2024-05-09T10:01:08.331Z,19.18
2024-05-09T10:03:39.338Z,19.85
2024-05-09T10:06:10.729Z,19.99
2024-05-09T10:08:42.414Z,19.96
2024-05-09T10:11:12.473Z,19.61
2024-05-09T10:13:45.350Z,19.51
2024-05-09T10:16:22.016Z,19.23
2024-05-09T10:18:53.002Z,19.26
2024-05-09T10:21:21.681Z,19.19
2024-05-09T10:24:02.895Z,18.88
2024-05-09T10:26:32.997Z,19.11
2024-05-09T10:29:06.409Z,19.32
2024-05-09T10:31:41.541Z,19.41
2024-05-09T10:34:20.718Z,19.24
2024-05-09T10:36:53.622Z,19.25
2024-05-09T10:39:24.498Z,19.32
2024-05-09T10:41:52.440Z,19.51
2024-05-09T10:44:24.939Z,19.39
2024-05-09T10:46:55.772Z,19.40
2024-05-09T10:49:26.350Z,19.13
2024-05-09T10:51:54.112Z,19.09
2024-05-09T10:54:24.785Z,19.07
2024-05-09T10:56:57.365Z,19.13
2024-05-09T10:59:28.226Z,19.10
2024-05-09T11:01:58.980Z,18.98
2024-05-09T11:04:31.206Z,18.92
2024-05-09T11:07:02.901Z,18.83
2024-05-09T11:09:36.648Z,19.15
2024-05-09T11:12:05.918Z,19.07
2024-05-09T11:14:36.344Z,19.59
2024-05-09T11:17:08.524Z,19.66
2024-05-09T11:19:42.312Z,19.77
2024-05-09T11:22:10.349Z,20.03
2024-05-09T11:24:41.026Z,20.05
2024-05-09T11:27:08.588Z,19.71
2024-05-09T11:29:43.272Z,19.44
2024-05-09T11:32:16.824Z,19.18
2024-05-09T11:34:47.134Z,19.42
2024-05-09T11:37:15.035Z,19.38
2024-05-09T11:39:45.451Z,19.77
2024-05-09T11:42:13.097Z,20.14
2024-05-09T11:44:43.667Z,20.47
2024-05-09T11:47:14.054Z,20.64
2024-05-09T11:49:44.658Z,20.81
2024-05-09T11:52:12.709Z,20.89
2024-05-09T11:54:43.288Z,20.85
2024-05-09T11:57:11.035Z,20.28
2024-05-09T11:59:41.422Z,19.69
2024-05-09T12:02:10.959Z,19.63
2024-05-09T12:04:43.991Z,19.35
2024-05-09T12:07:17.936Z,19.09
2024-05-09T12:09:48.665Z,19.89
2024-05-09T12:12:16.415Z,19.92
2024-05-09T12:14:48.970Z,19.59
2024-05-09T12:17:16.857Z,19.44
2024-05-09T12:19:49.745Z,19.41
2024-05-09T12:22:17.430Z,18.93
2024-05-09T12:24:48.160Z,19.21
2024-05-09T12:27:16.021Z,18.88
2024-05-09T12:29:46.574Z,18.72
2024-05-09T12:32:14.170Z,18.78
2024-05-09T12:34:44.764Z,18.99
2024-05-09T12:37:15.701Z,19.12
2024-05-09T12:39:46.128Z,18.94
2024-05-09T12:42:26.039Z,19.24
2024-05-09T12:44:57.671Z,19.31
2024-05-09T12:47:25.444Z,19.41
2024-05-09T12:49:56.110Z,19.34
2024-05-09T12:52:26.368Z,19.07
2024-05-09T12:54:56.997Z,19.32
2024-05-09T12:57:25.650Z,19.33
2024-05-09T12:59:56.186Z,19.33
2024-05-09T13:02:24.390Z,19.38
2024-05-09T13:04:56.338Z,19.41
2024-05-09T13:07:26.699Z,19.29
2024-05-09T13:09:57.013Z,19.12
2024-05-09T13:12:27.187Z,19.05
2024-05-09T13:14:57.731Z,19.15
2024-05-09T13:17:25.872Z,19.02
2024-05-09T13:19:56.453Z,19.20
2024-05-09T13:22:26.712Z,19.15
2024-05-09T13:24:57.144Z,19.14
2024-05-09T13:27:25.192Z,19.16
2024-05-09T13:29:57.351Z,19.15
2024-05-09T13:32:25.356Z,19.18
2024-05-09T13:34:55.981Z,19.06
2024-05-09T13:37:26.299Z,19.27
2024-05-09T13:39:56.907Z,19.27
2024-05-09T13:42:24.809Z,19.41
2024-05-09T13:44:55.326Z,19.59
2024-05-09T13:47:25.458Z,19.74
2024-05-09T13:49:55.830Z,19.80
2024-05-09T13:52:27.419Z,19.76
2024-05-09T13:54:58.434Z,19.89
2024-05-09T13:57:26.754Z,19.89
2024-05-09T13:59:57.311Z,19.95
2024-05-09T14:02:25.439Z,20.00
2024-05-09T14:04:55.845Z,19.64
2024-05-09T14:07:26.249Z,19.86
2024-05-09T14:09:56.634Z,19.73
2024-05-09T14:12:24.522Z,19.77
2024-05-09T14:14:55.584Z,19.65
2024-05-09T14:17:23.314Z,19.50
2024-05-09T14:19:53.881Z,19.74
2024-05-09T14:22:23.117Z,19.48
2024-05-09T14:24:55.985Z,19.13
2024-05-09T14:27:23.719Z,19.83
2024-05-09T14:29:54.089Z,19.59
2024-05-09T14:32:21.867Z,19.66
2024-05-09T14:34:52.459Z,19.64
2024-05-09T14:37:20.273Z,19.48
2024-05-09T14:39:50.583Z,19.74
2024-05-09T14:42:22.625Z,19.67
2024-05-09T14:44:52.836Z,19.88
2024-05-09T14:47:23.788Z,19.94
2024-05-09T14:49:54.157Z,20.00
2024-05-09T14:52:22.012Z,19.90
2024-05-09T14:54:59.969Z,19.60
2024-05-09T14:57:31.272Z,19.55
2024-05-09T15:00:01.535Z,19.77
2024-05-09T15:02:29.495Z,19.80
2024-05-09T15:05:01.446Z,19.83
2024-05-09T15:07:29.765Z,19.98
2024-05-09T15:10:00.273Z,19.86
2024-05-09T15:12:30.662Z,19.41
2024-05-09T15:15:01.222Z,20.13
2024-05-09T15:17:29.042Z,19.71
2024-05-09T15:19:59.716Z,20.09
2024-05-09T15:22:27.677Z,19.99
2024-05-09T15:24:58.235Z,20.01
2024-05-09T15:27:26.017Z,20.01
2024-05-09T15:30:02.702Z,19.78
2024-05-09T15:32:31.477Z,20.04
2024-05-09T15:35:02.100Z,20.10
2024-05-09T15:37:30.212Z,20.05
2024-05-09T15:40:00.892Z,20.04
2024-05-09T15:42:28.929Z,20.01
2024-05-09T15:45:01.834Z,19.98
2024-05-09T15:47:29.992Z,20.00
2024-05-09T15:50:00.741Z,20.06
2024-05-09T15:52:28.835Z,20.09
2024-05-09T15:54:59.650Z,20.00
2024-05-09T15:57:29.172Z,19.78
2024-05-09T16:00:15.122Z,19.92
2024-05-09T16:02:49.788Z,20.05
2024-05-09T16:05:20.509Z,20.10
2024-05-09T16:07:48.767Z,20.22
2024-05-09T16:10:25.578Z,20.20
2024-05-09T16:12:57.755Z,20.23
2024-05-09T16:15:31.177Z,19.43
2024-05-09T16:18:00.015Z,20.36
2024-05-09T16:20:38.844Z,20.31
2024-05-09T16:23:12.943Z,20.61
2024-05-09T16:25:48.307Z,20.74
2024-05-09T16:28:23.060Z,20.68
2024-05-09T16:30:55.319Z,20.04
2024-05-09T16:33:26.354Z,20.50
2024-05-09T16:35:55.185Z,20.40
2024-05-09T16:38:26.022Z,20.62
2024-05-09T16:40:54.574Z,20.38
2024-05-09T16:43:25.565Z,20.75
2024-05-09T16:45:56.104Z,20.16
2024-05-09T16:48:27.010Z,20.85
2024-05-09T16:50:55.298Z,20.96
2024-05-09T16:53:25.854Z,20.05
2024-05-09T16:55:53.911Z,20.82
2024-05-09T16:58:24.805Z,20.93
2024-05-09T17:01:07.709Z,20.55
2024-05-09T17:03:39.006Z,21.06
2024-05-09T17:06:07.727Z,21.10
2024-05-09T17:08:40.490Z,21.17
2024-05-09T17:11:08.649Z,21.23
2024-05-09T17:13:40.967Z,21.31
2024-05-09T17:16:15.700Z,20.60
2024-05-09T17:18:46.469Z,20.34
2024-05-09T17:21:15.220Z,21.33
2024-05-09T17:23:45.944Z,21.26
2024-05-09T17:26:14.286Z,21.21
2024-05-09T17:28:44.808Z,19.97
2024-05-09T17:31:17.688Z,20.94
2024-05-09T17:33:48.453Z,20.92
2024-05-09T17:36:16.334Z,20.68
2024-05-09T17:38:47.132Z,20.70
2024-05-09T17:41:15.277Z,20.61
2024-05-09T17:43:46.995Z,20.42
2024-05-09T17:46:17.680Z,20.30
2024-05-09T17:48:48.290Z,20.18
2024-05-09T17:51:16.499Z,20.12
2024-05-09T17:53:47.986Z,19.82
2024-05-09T17:56:16.297Z,19.63
2024-05-09T17:58:48.947Z,19.48
2024-05-09T18:04:04.092Z,19.10
2024-05-09T18:06:34.827Z,18.89
2024-05-09T18:09:05.732Z,18.72
2024-05-09T18:11:33.739Z,18.56
2024-05-09T18:14:04.430Z,18.37
2024-05-09T18:16:34.835Z,18.03
2024-05-09T18:19:14.964Z,17.65
2024-05-09T18:21:42.792Z,17.54
2024-05-09T18:24:13.018Z,17.55
2024-05-09T18:26:41.303Z,17.40
2024-05-09T18:29:13.136Z,17.24
2024-05-09T18:31:43.558Z,17.02
2024-05-09T18:34:14.351Z,16.88
2024-05-09T18:36:42.633Z,16.69
2024-05-09T18:39:17.131Z,15.47
2024-05-09T18:41:44.799Z,16.23
2024-05-09T18:44:15.142Z,16.18
2024-05-09T18:46:45.670Z,15.84
2024-05-09T18:49:16.499Z,16.15
2024-05-09T18:51:44.689Z,15.94
2024-05-09T18:54:16.106Z,15.58
2024-05-09T18:56:44.132Z,15.78
2024-05-09T18:59:14.390Z,15.31
2024-05-09T19:01:45.165Z,15.45
2024-05-09T19:04:18.449Z,15.31
2024-05-09T19:06:46.600Z,14.99
2024-05-09T19:09:17.430Z,15.10
2024-05-09T19:11:45.527Z,15.01
2024-05-09T19:14:16.019Z,14.88
2024-05-09T19:16:46.370Z,14.49
2024-05-09T19:19:17.515Z,14.53
2024-05-09T19:21:45.288Z,13.93
2024-05-09T19:24:17.253Z,14.03
2024-05-09T19:26:45.692Z,14.15
2024-05-09T19:29:16.312Z,14.04
2024-05-09T19:31:46.602Z,13.94
2024-05-09T19:34:17.378Z,13.87
2024-05-09T19:36:45.561Z,13.84
2024-05-09T19:39:15.943Z,13.83
2024-05-09T19:41:43.901Z,13.79
2024-05-09T19:44:14.138Z,13.60
2024-05-09T19:46:42.091Z,13.74
2024-05-09T19:49:15.355Z,13.58
2024-05-09T19:51:43.373Z,13.66
2024-05-09T19:54:15.910Z,12.15
2024-05-09T19:56:45.377Z,13.53
2024-05-09T19:59:15.901Z,13.44
2024-05-09T20:01:44.126Z,13.38
2024-05-09T20:04:17.370Z,13.31
2024-05-09T20:06:45.453Z,13.21
2024-05-09T20:09:15.978Z,13.10
2024-05-09T20:11:46.430Z,12.97
2024-05-09T20:14:18.764Z,12.85
2024-05-09T20:16:47.132Z,12.73
2024-05-09T20:19:20.285Z,12.26
2024-05-09T20:21:48.454Z,12.44
2024-05-09T20:24:19.063Z,12.59
2024-05-09T20:26:47.282Z,12.16
2024-05-09T20:29:17.967Z,12.51
2024-05-09T20:31:48.954Z,12.50
2024-05-09T20:34:22.172Z,12.46
2024-05-09T20:36:52.545Z,12.43
2024-05-09T20:39:29.175Z,12.15
2024-05-09T20:41:57.950Z,12.31
2024-05-09T20:44:28.629Z,12.23
2024-05-09T20:46:56.272Z,11.88
2024-05-09T20:49:29.343Z,12.12
2024-05-09T20:51:57.863Z,12.04
2024-05-09T20:54:28.163Z,11.78
2024-05-09T20:56:55.759Z,11.91
2024-05-09T20:59:26.019Z,11.87
2024-05-09T21:02:02.846Z,11.59
2024-05-09T21:04:58.582Z,11.83
2024-05-09T21:07:48.872Z,11.80
2024-05-09T21:10:22.520Z,11.75
2024-05-09T21:12:54.293Z,11.68
2024-05-09T21:15:22.313Z,11.64
2024-05-09T21:17:52.883Z,11.60
2024-05-09T21:20:28.854Z,11.51
2024-05-09T21:23:02.597Z,11.56
2024-05-09T21:25:30.862Z,11.65
2024-05-09T21:28:01.483Z,11.69
2024-05-09T21:30:38.578Z,11.66
2024-05-09T21:33:14.631Z,11.58
2024-05-09T21:35:45.845Z,11.51
2024-05-09T21:38:18.328Z,11.11
2024-05-09T21:40:46.468Z,11.28
2024-05-09T21:43:17.133Z,11.23
2024-05-09T21:45:45.116Z,11.15
2024-05-09T21:48:16.226Z,10.68
2024-05-09T21:50:46.486Z,11.06
2024-05-09T21:53:17.513Z,11.02
2024-05-09T21:55:46.524Z,10.98
2024-05-09T21:58:17.576Z,10.77
2024-05-09T22:00:46.600Z,10.92
2024-05-09T22:03:17.818Z,10.91
2024-05-09T22:05:48.272Z,10.83
2024-05-09T22:08:18.566Z,10.61
2024-05-09T22:10:46.544Z,10.86
2024-05-09T22:13:19.174Z,10.62
2024-05-09T22:15:47.072Z,10.56
2024-05-09T22:18:17.655Z,10.85
2024-05-09T22:20:48.403Z,10.80
2024-05-09T22:23:18.978Z,10.76
2024-05-09T22:25:46.905Z,10.76
2024-05-09T22:28:18.316Z,10.74
2024-05-09T22:30:47.306Z,10.71
2024-05-09T22:33:18.590Z,10.73
2024-05-09T22:35:49.239Z,10.74
2024-05-09T22:38:19.976Z,10.76
2024-05-09T22:40:49.913Z,10.78
2024-05-09T22:43:24.059Z,10.76
2024-05-09T22:45:54.993Z,10.73
2024-05-09T22:48:26.474Z,10.73
2024-05-09T22:50:57.167Z,10.72
2024-05-09T22:53:28.010Z,10.25
2024-05-09T22:55:55.968Z,10.58
2024-05-09T22:58:26.587Z,10.53
2024-05-09T23:00:54.727Z,10.45
2024-05-09T23:03:25.681Z,10.41
2024-05-09T23:05:56.150Z,10.38
2024-05-09T23:08:26.611Z,10.37
2024-05-09T23:10:54.842Z,10.39
2024-05-09T23:13:25.691Z,10.39
2024-05-09T23:15:53.710Z,10.36
2024-05-09T23:18:24.275Z,10.34
2024-05-09T23:20:52.181Z,10.30
2024-05-09T23:23:25.181Z,10.27
2024-05-09T23:25:53.250Z,10.24
2024-05-09T23:28:24.106Z,10.18
2024-05-09T23:30:52.146Z,10.17
2024-05-09T23:33:22.450Z,9.93
2024-05-09T23:35:50.461Z,10.23
2024-05-09T23:38:23.821Z,10.29
2024-05-09T23:40:54.833Z,10.26
2024-05-09T23:43:25.715Z,10.13
2024-05-09T23:45:53.702Z,10.06
2024-05-09T23:48:24.246Z,10.02
2024-05-09T23:50:52.163Z,9.96
2024-05-09T23:53:22.703Z,9.90
2024-05-09T23:55:53.283Z,9.81
2024-05-09T23:58:24.001Z,9.74
